Arlington, WA

1:11 AM PDT on September 19, 2014 (GMT -0700)
Oak Harbor | Change Station
CLOSE
Current Station
Airport
Location: Oak Harbor,
Elevation: 194 ft
Nearby Weather Stations

Elev 194 ft 48.25 °N, 122.67 °W | Updated 2087 days ago

Overcast
Overcast
57 °F
Feels Like 57 °F
N
6
Wind Variable Wind from South
Gusts 6 mph

Today
High -- | Low -- °F
--% Chance of Precip.
Yesterday
High -- | Low -- °F
Precip. -- in
6:50 AM 7:11 PM
Waning Crescent, 21% visible
Pressure 29.95 in
Visibility 10.0 miles
Clouds Scattered Clouds 1700 ft
Mostly Cloudy 4100 ft
Overcast 6500 ft
Dew Point 55 °F
Humidity 95%
Rainfall 0.00 in
Snow Depth Not available.
UV 0 out of 12
Pollen .40 out of 12
PM2.5 Good
Flu Activity Not available.
METAR KOKH 311556Z AUTO 23014G23KT 10SM SCT017 BKN041 OVC065 03/00 A2995 RMK FIRST

More Conditions Fewer Conditions

Pressure 29.95 in
Visibility 10.0 miles
Clouds Scattered Clouds 1700 ft
Mostly Cloudy 4100 ft
Overcast 6500 ft
Dew Point 55 °F
Humidity 95%
Rainfall 0.00 in
Snow Depth Not available.
UV 0 out of 12
Pollen .40 out of 12
PM2.5 Good
Flu Activity Not available.
METAR KOKH 311556Z AUTO 23014G23KT 10SM SCT017 BKN041 OVC065 03/00 A2995 RMK FIRST

More Conditions Fewer Conditions

10-Day Weather Forecast

Almanac

Astronomy

Sep. 19, 2014 Rise Set
Actual Time 6:50 AM PDT 7:11 PM PDT
Civil Twilight 6:19 AM PDT 7:42 PM PDT
Nautical Twilight 5:42 AM PDT 8:19 PM PDT
Astronomical Twilight 5:04 AM PDT 8:57 PM PDT
Moon 2:25 AM PDT 4:57 PM PDT
Length of Visible Light 13h 23m
Length of Day
12h 21m
Tomorrow will be 3m 28s shorter.
Waning Crescent, 21% of the Moon is Illuminated
Today
Waning Crescent
Sep 24
New
Oct 1
First Quarter
Oct 8
Full
Oct 15
Last Quarter

Today's Extremes

State Highs State Lows

Community

WunderPhotos

Upload Photos

1,754,579 photos uploaded!

Nearby

Air Quality

  Air Quality AQ Index Pollutant
Yesterday Moderate
PM2.5
Yesterday Good
OZONE
Current Good
PM2.5
Thursday Good
OZONE
Thursday Good
PM2.5
Friday Good
PM2.5
Friday Good
OZONE
Saturday Good
PM2.5
Saturday Good
OZONE
Sunday Good
PM2.5
Sunday Good
OZONE
Monday Good
OZONE
Monday Good
PM2.5
Tuesday Good
OZONE
Tuesday Good
PM2.5

Snow Depth

Station Depth Elevation
Grouse Camp 0 in 5380 ft
June Lake 0 in 3340 ft
Surprise Lakes 0 in 4250 ft
Harts Pass 0 in 6500 ft
Park Creek Ridge 0 in 4600 ft

Earthquake Activity

City Distance Mag. Time & Date
Seabeck, Washington 64 miles 4.0 3:06 AM PDT
2014-09-17
Morton, Washington 129 miles 3.0 5:43 AM PDT
2014-09-16
Minimum magnitude displayed is 2.5.

Coastal Water Temperatures

Place Temperature
Port Townsend, WA 53.1 °F
Seattle, WA 55.9 °F
Friday Harbor, WA 53.1 °F
Tacoma, WA 55.9 °F

Nearby Weather Stations